ADDS METAR Data INFO
IDs: Format: Raw Decoded Include TAF

Data at: 1053 UTC 19 Oct 2017

KGLW 191035Z AUTO 00000KT 10SM CLR A3027 RMK AO2
KGLW 191015Z AUTO 00000KT 10SM CLR 05/05 A3026 RMK AO2 T00500050
KGLW 190955Z AUTO 00000KT 10SM CLR 05/05 A3026 RMK AO2 T00510051
KGLW 190935Z AUTO 00000KT 10SM CLR 05/05 A3026 RMK AO2 T00510051
KGLW 190915Z AUTO 00000KT 05/05 A3025 RMK AO2 T00510051 PWINO
KGLW 190855Z AUTO 00000KT 10SM CLR 05/05 A3024 RMK AO2 T00530053
KGLW 190835Z AUTO 00000KT 10SM CLR 05/05 A3023 RMK AO2 T00540054
KGLW 190815Z AUTO 00000KT 10SM CLR 06/06 A3023 RMK AO2 T00570057
KGLW 190755Z AUTO 00000KT 10SM CLR 06/06 A3024 RMK AO2 T00620062
KGLW 190735Z AUTO 00000KT 10SM CLR 06/06 A3023 RMK AO2 T00590059
KGLW 190715Z AUTO 00000KT 10SM CLR 06/06 A3023 RMK AO2 T00630063
KGLW 190655Z AUTO 00000KT 10SM CLR 06/06 A3023 RMK AO2 T00580058
KGLW 190635Z AUTO 00000KT 10SM CLR 06/06 A3024 RMK AO2 T00620062
KGLW 190615Z AUTO 00000KT 10SM CLR 06/06 A3024 RMK AO2 T00570057
KGLW 190555Z AUTO 00000KT 10SM CLR 07/07 A3024 RMK AO2 T00650065 10129 20065
KGLW 190535Z AUTO 00000KT 10SM CLR 07/07 A3023 RMK AO2 T00660066
KGLW 190515Z AUTO 00000KT 10SM CLR 07/07 A3023 RMK AO2 T00690069
KGLW 190455Z AUTO 00000KT 10SM CLR 07/07 A3022 RMK AO2 T00690069
KGLW 190435Z AUTO 00000KT 10SM CLR 07/07 A3023 RMK AO2 T00730073
KGLW 190415Z AUTO 00000KT 10SM CLR 08/08 A3023 RMK AO2 T00750075
KGLW 190355Z AUTO 00000KT 10SM CLR 08/08 A3023 RMK AO2 T00760076
KGLW 190335Z AUTO 00000KT 10SM CLR 08/08 A3023 RMK AO2 T00800080
KGLW 190315Z AUTO 00000KT 10SM CLR 08/08 A3023 RMK AO2 T00810081
KGLW 190255Z AUTO 00000KT 10SM CLR 08/08 A3023 RMK AO2 T00820082
KGLW 190235Z AUTO 00000KT 10SM CLR 09/08 A3023 RMK AO2 T00850083
KGLW 190215Z AUTO 00000KT 10SM CLR 09/09 A3023 RMK AO2 T00870087
KGLW 190155Z AUTO 00000KT 10SM CLR 08/08 A3023 RMK AO2 T00830075
KGLW 190135Z AUTO 00000KT 10SM CLR 10/07 A3023 RMK AO2 T00980073
KGLW 190115Z AUTO 00000KT 10SM CLR 11/08 A3023 RMK AO2 T01050076
KGLW 190055Z AUTO 00000KT 10SM CLR 10/08 A3023 RMK AO2 T01020076
KGLW 190035Z AUTO 00000KT 7SM CLR 11/08 A3023 RMK AO2 T01110077
KGLW 190015Z AUTO 08003KT 10SM CLR 12/07 A3023 RMK AO2 T01160074
KGLW 182355Z AUTO 00000KT 10SM CLR 13/07 A3023 RMK AO2 T01270074 10220 20125
KGLW 182335Z AUTO 00000KT 10SM CLR 13/08 A3023 RMK AO2 T01300075
KGLW 182315Z AUTO 00000KT 10SM CLR 15/07 A3023 RMK AO2 T01480073
KGLW 182255Z AUTO 00000KT 10SM CLR 17/07 A3023 RMK AO2 T01720066
KGLW 182235Z AUTO 00000KT 10SM CLR 20/06 A3023 RMK AO2 T01970056
KGLW 182215Z AUTO 18004KT 10SM CLR 20/05 A3023 RMK AO2 T02030052
KGLW 182155Z AUTO 21003KT 10SM CLR 21/05 A3023 RMK AO2 T02090053
KGLW 182135Z AUTO 18005KT 10SM CLR 21/05 A3023 RMK AO2 T02100049
KGLW 182115Z AUTO 20003KT 10SM CLR 21/06 A3023 RMK AO2 T02120056
KGLW 182055Z AUTO 15004KT 10SM CLR 22/06 A3023 RMK AO2 T02150056
KGLW 182035Z AUTO 16005KT 10SM CLR 22/05 A3024 RMK AO2 T02160053
KGLW 182015Z AUTO 16004KT 10SM CLR 21/06 A3024 RMK AO2 T02140060
KGLW 181955Z AUTO 19005KT 10SM CLR 22/06 A3025 RMK AO2 T02150057
KGLW 181935Z AUTO 20003KT 10SM CLR 21/06 A3026 RMK AO2 T02140056
KGLW 181915Z AUTO 23004KT 10SM CLR 21/06 A3026 RMK AO2 T02090056
KGLW 181855Z AUTO 21003KT 10SM CLR 22/06 A3026 RMK AO2 T02170061
KGLW 181835Z AUTO 20003KT 10SM CLR 21/06 A3027 RMK AO2 T02110056
KGLW 181815Z AUTO 21005KT 10SM CLR 21/06 A3029 RMK AO2 T02100058
KGLW 181755Z AUTO 17009KT 10SM CLR 21/07 A3029 RMK AO2 T02110068
KGLW 181735Z AUTO 19004KT 10SM CLR 20/06 A3031 RMK AO2 T01980063
KGLW 181715Z AUTO 27006KT 10SM CLR 20/07 A3031 RMK AO2 T01970066
KGLW 181655Z AUTO 19007KT 10SM CLR 20/07 A3032 RMK AO2 T02000066
KGLW 181635Z AUTO 23007KT 10SM CLR 19/08 A3033 RMK AO2 T01920078
KGLW 181615Z AUTO 20006KT 10SM CLR 19/09 A3034 RMK AO2 T01900086
KGLW 181555Z AUTO 23007KT 10SM CLR 18/09 A3034 RMK AO2 T01840085
KGLW 181535Z AUTO 25007KT 10SM CLR 17/09 A3034 RMK AO2 T01740086
KGLW 181515Z AUTO 23005KT 10SM CLR 16/08 A3035 RMK AO2 T01620082
KGLW 181455Z AUTO 23005KT 10SM CLR 16/09 A3035 RMK AO2 T01550087
KGLW 181435Z AUTO 22005KT 10SM CLR 15/08 A3035 RMK AO2 T01460084
KGLW 181415Z AUTO 19003KT 10SM CLR 13/08 A3034 RMK AO2 T01310079
KGLW 181355Z AUTO 18003KT 10SM CLR 12/08 A3034 RMK AO2 T01210081
KGLW 181335Z AUTO 00000KT 10SM CLR 10/08 A3033 RMK AO2 T00960081
KGLW 181315Z AUTO 00000KT 10SM CLR A3033 RMK AO2
KGLW 181255Z AUTO 00000KT 10SM CLR A3033 RMK AO2
KGLW 181235Z AUTO 00000KT 10SM CLR A3032 RMK AO2
KGLW 181215Z AUTO 00000KT 10SM CLR A3031 RMK AO2
KGLW 181155Z AUTO 00000KT 10SM CLR A3031 RMK AO2
KGLW 181135Z AUTO 00000KT 10SM CLR A3030 RMK AO2
KGLW 181115Z AUTO 00000KT 10SM CLR A3030 RMK AO2
KGLW 181055Z AUTO 00000KT 10SM CLR A3029 RMK AO2
KGLW 181035Z AUTO 00000KT 7SM CLR A3029 RMK AO2
KGLW 181015Z AUTO 00000KT 10SM CLR A3029 RMK AO2
KGLW 180955Z AUTO 00000KT 10SM CLR A3028 RMK AO2
KGLW 180935Z AUTO 00000KT 10SM CLR A3028 RMK AO2
KGLW 180915Z AUTO 00000KT 7SM CLR A3027 RMK AO2
KGLW 180855Z AUTO 00000KT 10SM CLR A3027 RMK AO2
KGLW 180835Z AUTO 00000KT 10SM CLR A3027 RMK AO2
KGLW 180815Z AUTO 00000KT 10SM CLR A3027 RMK AO2
KGLW 180755Z AUTO 00000KT 10SM CLR A3027 RMK AO2
KGLW 180735Z AUTO 00000KT 10SM CLR 05/05 A3027 RMK AO2 T00470047
KGLW 180715Z AUTO 00000KT 10SM CLR 05/05 A3027 RMK AO2 T00500050
KGLW 180655Z AUTO 00000KT 10SM CLR 05/05 A3027 RMK AO2 T00480048
KGLW 180635Z AUTO 00000KT 05/05 A3027 RMK AO2 T00520052 PWINO
KGLW 180615Z AUTO 00000KT 10SM CLR 05/05 A3027 RMK AO2 T00530053
KGLW 180555Z AUTO 00000KT 10SM CLR 06/06 A3027 RMK AO2 T00570057 10109 20054
KGLW 180535Z AUTO 00000KT 10SM CLR 06/06 A3027 RMK AO2 T00610061
KGLW 180515Z AUTO 00000KT 10SM CLR 06/06 A3027 RMK AO2 T00640064
KGLW 180455Z AUTO 00000KT 10SM CLR 06/06 A3028 RMK AO2 T00610061
KGLW 180435Z AUTO 09003KT 10SM CLR 06/06 A3028 RMK AO2 T00640064
KGLW 180415Z AUTO 00000KT 10SM CLR 07/07 A3028 RMK AO2 T00650065
KGLW 180355Z AUTO 00000KT 10SM CLR 07/07 A3028 RMK AO2 T00650065
KGLW 180335Z AUTO 00000KT 10SM CLR 06/06 A3029 RMK AO2 T00630063
KGLW 180315Z AUTO 00000KT 10SM CLR 07/07 A3029 RMK AO2 T00660066
KGLW 180255Z AUTO 00000KT 10SM CLR 07/07 A3029 RMK AO2 T00720072
KGLW 180235Z AUTO 00000KT 10SM CLR 07/07 A3029 RMK AO2 T00710068
KGLW 180215Z AUTO 00000KT 10SM CLR 08/08 A3028 RMK AO2 T00820081
KGLW 180155Z AUTO 00000KT 10SM CLR 08/06 A3028 RMK AO2 T00810064
KGLW 180135Z AUTO 00000KT 10SM CLR 09/07 A3028 RMK AO2 T00870070
KGLW 180115Z AUTO 00000KT 10SM CLR 08/07 A3028 RMK AO2 T00840066
KGLW 180055Z AUTO 00000KT 10SM CLR 09/07 A3028 RMK AO2 T00900067
KGLW 180035Z AUTO 00000KT 10SM CLR 09/07 A3027 RMK AO2 T00910068
KGLW 180015Z AUTO 00000KT 10SM CLR 10/06 A3027 RMK AO2 T01040064
KGLW 172355Z AUTO 00000KT 10SM CLR 11/07 A3027 RMK AO2 T01060066 10202 20106
KGLW 172335Z AUTO 00000KT 10SM CLR 12/07 A3026 RMK AO2 T01170065
KGLW 172315Z AUTO 00000KT 10SM CLR 13/06 A3026 RMK AO2 T01290064
KGLW 172255Z AUTO 00000KT 10SM CLR 16/05 A3026 RMK AO2 T01570051